createdAt,value
2022-11-20T00:01:11.598Z,100964.50
2022-11-20T00:03:39.733Z,100966.22
2022-11-20T00:06:09.581Z,100961.94
2022-11-20T00:08:38.315Z,100959.13
2022-11-20T00:11:10.321Z,100961.94
2022-11-20T00:13:42.372Z,100963.69
2022-11-20T00:16:13.694Z,100956.59
2022-11-20T00:18:43.317Z,100966.22
2022-11-20T00:21:14.720Z,100966.22
2022-11-20T00:23:42.832Z,100969.88
2022-11-20T00:26:13.316Z,100968.91
2022-11-20T00:28:43.272Z,100963.53
2022-11-20T00:31:12.897Z,100960.84
2022-11-20T00:33:40.784Z,100960.84
2022-11-20T00:36:10.795Z,100960.84
2022-11-20T00:38:39.448Z,100931.97
2022-11-20T00:41:11.203Z,100962.53
2022-11-20T00:43:39.815Z,100955.75
2022-11-20T00:46:12.087Z,100967.91
2022-11-20T00:48:39.991Z,100960.84
2022-11-20T00:51:08.431Z,100957.19
2022-11-20T00:53:36.819Z,100953.78
2022-11-20T00:56:06.898Z,100962.53
2022-11-20T00:58:36.114Z,100961.69
2022-11-20T01:01:06.226Z,100947.25
2022-11-20T01:03:36.967Z,100962.53
2022-11-20T01:06:06.394Z,100965.03
2022-11-20T01:08:35.275Z,100971.59
2022-11-20T01:11:03.948Z,100977.22
2022-11-20T01:13:41.966Z,100977.91
2022-11-20T01:16:11.951Z,100984.00
2022-11-20T01:18:43.204Z,100977.78
2022-11-20T01:21:13.590Z,100980.59
2022-11-20T01:23:42.813Z,100977.91
2022-11-20T01:26:12.993Z,100949.47
2022-11-20T01:28:41.855Z,100987.69
2022-11-20T01:31:14.955Z,100980.88
2022-11-20T01:33:45.019Z,100984.53
2022-11-20T01:36:14.272Z,100991.31
2022-11-20T01:38:42.277Z,100992.19
2022-11-20T01:41:11.506Z,100977.91
2022-11-20T01:43:38.426Z,100977.22
2022-11-20T01:46:18.711Z,100977.91
2022-11-20T01:48:54.366Z,100972.69
2022-11-20T01:51:30.759Z,100968.19
2022-11-20T01:54:02.579Z,100968.19
2022-11-20T01:56:33.519Z,100962.81
2022-11-20T01:59:04.475Z,100960.25
2022-11-20T02:01:32.428Z,100961.13
2022-11-20T02:04:02.895Z,100957.44
2022-11-20T02:06:34.977Z,100947.84
2022-11-20T02:09:02.879Z,100952.09
2022-11-20T02:11:32.292Z,100950.41
2022-11-20T02:14:00.387Z,100951.34
2022-11-20T02:16:30.887Z,100934.84
2022-11-20T02:19:02.833Z,100922.09
2022-11-20T02:21:37.300Z,100938.66
2022-11-20T02:24:11.977Z,100941.34
2022-11-20T02:26:49.273Z,100944.03
2022-11-20T02:29:21.194Z,100937.81
2022-11-20T02:31:49.635Z,100915.94
2022-11-20T02:34:17.557Z,100930.63
2022-11-20T02:36:46.786Z,100925.41
2022-11-20T02:39:18.948Z,100931.75
2022-11-20T02:41:46.987Z,100928.06
2022-11-20T02:44:15.030Z,100921.84
2022-11-20T02:46:42.948Z,100927.22
2022-11-20T02:49:10.862Z,100923.56
2022-11-20T02:51:39.987Z,100923.56
2022-11-20T02:54:07.902Z,100928.06
2022-11-20T02:56:39.659Z,100895.84
2022-11-20T02:59:07.551Z,100918.22
2022-11-20T03:01:35.565Z,100914.81
2022-11-20T03:04:04.030Z,100918.22
2022-11-20T03:06:31.970Z,100912.84
2022-11-20T03:08:59.982Z,100919.03
2022-11-20T03:11:27.914Z,100928.66
2022-11-20T03:13:57.221Z,100912.84
2022-11-20T03:16:25.578Z,100909.16
2022-11-20T03:18:55.047Z,100914.53
2022-11-20T03:21:23.204Z,100904.06
2022-11-20T03:23:51.197Z,100902.13
2022-11-20T03:26:20.903Z,100857.97
2022-11-20T03:28:50.600Z,100897.03
2022-11-20T03:31:21.380Z,100894.75
2022-11-20T03:33:49.622Z,100902.13
2022-11-20T03:36:19.480Z,100896.75
2022-11-20T03:38:47.547Z,100900.41
2022-11-20T03:41:17.443Z,100911.13
2022-11-20T03:43:49.534Z,100905.91
2022-11-20T03:46:17.512Z,100913.81
2022-11-20T03:48:51.371Z,100913.81
2022-11-20T03:51:21.915Z,100907.47
2022-11-20T03:53:51.671Z,100899.56
2022-11-20T03:56:22.179Z,100906.75
2022-11-20T03:58:50.308Z,100892.34
2022-11-20T04:01:20.334Z,100892.34
2022-11-20T04:03:50.058Z,100886.72
2022-11-20T04:06:19.584Z,100878.94
2022-11-20T04:08:53.324Z,100874.44
2022-11-20T04:11:23.322Z,100870.19
2022-11-20T04:13:53.078Z,100876.97
2022-11-20T04:16:21.886Z,100881.47
2022-11-20T04:18:54.072Z,100875.28
2022-11-20T04:21:22.081Z,100869.94
2022-11-20T04:23:50.131Z,100876.97
2022-11-20T04:26:18.261Z,100876.13
2022-11-20T04:28:46.223Z,100863.84
2022-11-20T04:31:16.702Z,100866.25
2022-11-20T04:33:45.136Z,100856.66
2022-11-20T04:36:16.030Z,100855.53
2022-11-20T04:38:44.276Z,100853.69
2022-11-20T04:41:17.293Z,100855.53
2022-11-20T04:43:48.555Z,100848.47
2022-11-20T04:46:17.252Z,100816.78
2022-11-20T04:48:45.373Z,100846.47
2022-11-20T04:51:14.686Z,100839.44
2022-11-20T04:53:42.763Z,100844.78
2022-11-20T04:56:12.712Z,100844.78
2022-11-20T04:58:41.458Z,100830.38
2022-11-20T05:01:11.946Z,100809.34
2022-11-20T05:03:42.476Z,100834.91
2022-11-20T05:06:12.062Z,100839.44
2022-11-20T05:08:41.571Z,100846.47
2022-11-20T05:11:10.859Z,100831.38
2022-11-20T05:13:39.104Z,100803.78
2022-11-20T05:16:09.366Z,100825.28
2022-11-20T05:18:38.596Z,100821.66
2022-11-20T05:21:07.198Z,100823.34
2022-11-20T05:23:35.786Z,100827.00
2022-11-20T05:26:05.955Z,100805.81
2022-11-20T05:28:34.657Z,100807.25
2022-11-20T05:31:07.345Z,100812.59
2022-11-20T05:33:36.124Z,100801.88
2022-11-20T05:36:04.513Z,100801.88
2022-11-20T05:38:32.775Z,100801.88
2022-11-20T05:41:07.584Z,100796.50
2022-11-20T05:43:36.067Z,100796.50
2022-11-20T05:46:04.358Z,100791.16
2022-11-20T05:48:32.997Z,100787.47
2022-11-20T05:51:01.501Z,100792.84
2022-11-20T05:53:29.469Z,100783.97
2022-11-20T05:56:01.154Z,100780.41
2022-11-20T05:58:31.092Z,100785.78
2022-11-20T06:01:05.968Z,100787.59
2022-11-20T06:03:34.007Z,100783.25
2022-11-20T06:06:02.308Z,100784.09
2022-11-20T06:08:30.240Z,100780.41
2022-11-20T06:10:58.573Z,100778.00
2022-11-20T06:13:27.278Z,100773.38
2022-11-20T06:15:56.622Z,100768.97
2022-11-20T06:18:24.571Z,100763.47
2022-11-20T06:21:03.480Z,100762.63
2022-11-20T06:23:32.760Z,100761.63
2022-11-20T06:26:04.565Z,100761.63
2022-11-20T06:28:33.187Z,100757.97
2022-11-20T06:31:02.571Z,100765.19
2022-11-20T06:33:31.021Z,100751.91
2022-11-20T06:36:01.022Z,100762.63
2022-11-20T06:38:32.040Z,100754.59
2022-11-20T06:41:00.025Z,100757.28
2022-11-20T06:43:30.857Z,100751.91
2022-11-20T06:46:00.603Z,100751.91
2022-11-20T06:48:31.150Z,100745.53
2022-11-20T06:50:59.818Z,100747.50
2022-11-20T06:53:27.916Z,100746.53
2022-11-20T06:55:58.648Z,100742.88
2022-11-20T06:58:29.014Z,100742.88
2022-11-20T07:01:00.577Z,100751.78
2022-11-20T07:03:30.042Z,100757.00
2022-11-20T07:05:58.391Z,100745.53
2022-11-20T07:08:26.974Z,100737.50
2022-11-20T07:10:55.275Z,100741.03
2022-11-20T07:13:23.163Z,100742.88
2022-11-20T07:15:51.089Z,100734.81
2022-11-20T07:18:18.963Z,100728.75
2022-11-20T07:20:48.299Z,100729.44
2022-11-20T07:23:16.246Z,100737.50
2022-11-20T07:25:44.414Z,100738.34
2022-11-20T07:28:12.768Z,100728.75
2022-11-20T07:30:40.733Z,100735.53
2022-11-20T07:33:08.716Z,100703.03
2022-11-20T07:35:36.913Z,100726.78
2022-11-20T07:38:06.175Z,100730.44
2022-11-20T07:40:34.125Z,100730.44
2022-11-20T07:43:02.023Z,100732.13
2022-11-20T07:45:29.961Z,100725.09
2022-11-20T07:47:57.849Z,100719.72
2022-11-20T07:50:25.732Z,100703.63
2022-11-20T07:52:54.261Z,100710.69
2022-11-20T07:55:23.574Z,100701.91
2022-11-20T07:57:57.019Z,100701.91
2022-11-20T08:00:25.555Z,100694.59
2022-11-20T08:02:53.640Z,100699.94
2022-11-20T08:05:21.616Z,100706.16
2022-11-20T08:07:52.071Z,100669.00
2022-11-20T08:10:20.208Z,100701.63
2022-11-20T08:13:08.815Z,100699.94
2022-11-20T08:15:37.473Z,100701.63
2022-11-20T08:20:55.242Z,100703.63
2022-11-20T08:23:25.194Z,100694.59
2022-11-20T08:25:53.431Z,100698.25
2022-11-20T08:28:22.826Z,100697.25
2022-11-20T08:30:51.532Z,100698.25
2022-11-20T08:33:20.474Z,100690.22
2022-11-20T08:35:48.376Z,100699.09
2022-11-20T08:38:16.345Z,100687.53
2022-11-20T08:41:05.553Z,100694.59
2022-11-20T08:43:34.860Z,100699.94
2022-11-20T08:46:02.823Z,100695.44
2022-11-20T08:48:30.742Z,100689.22
2022-11-20T08:51:00.550Z,100693.59
2022-11-20T08:53:28.546Z,100686.69
2022-11-20T08:55:56.532Z,100696.28
2022-11-20T08:58:24.469Z,100692.63
2022-11-20T09:00:54.000Z,100686.53
2022-11-20T09:03:22.507Z,100691.75
2022-11-20T09:05:50.447Z,100687.25
2022-11-20T09:08:18.418Z,100686.41
2022-11-20T09:10:46.360Z,100680.19
2022-11-20T09:13:14.256Z,100684.56
2022-11-20T09:15:42.372Z,100687.25
2022-11-20T09:18:11.660Z,100641.94
2022-11-20T09:20:39.666Z,100671.44
2022-11-20T09:23:07.884Z,100674.81
2022-11-20T09:25:35.760Z,100680.19
2022-11-20T09:28:03.676Z,100668.63
2022-11-20T09:30:31.979Z,100667.75
2022-11-20T09:33:00.000Z,100663.25
2022-11-20T09:35:29.415Z,100648.28
2022-11-20T09:37:57.572Z,100645.31
2022-11-20T09:40:27.455Z,100630.06
2022-11-20T09:43:00.180Z,100606.53
2022-11-20T09:45:48.692Z,100643.47
2022-11-20T09:48:31.561Z,100642.63
2022-11-20T09:51:15.099Z,100637.25
2022-11-20T09:53:55.364Z,100630.22
2022-11-20T09:56:23.706Z,100623.16
2022-11-20T09:58:54.583Z,100630.22
2022-11-20T10:01:25.759Z,100632.91
2022-11-20T10:03:59.548Z,100626.53
2022-11-20T10:06:33.053Z,100625.72
2022-11-20T10:09:15.760Z,100623.84
2022-11-20T10:11:52.143Z,100619.47
2022-11-20T10:14:31.379Z,100621.16
2022-11-20T10:17:08.455Z,100616.81
2022-11-20T10:19:49.296Z,100615.81
2022-11-20T10:22:33.567Z,100612.44
2022-11-20T10:25:09.545Z,100609.75
2022-11-20T10:28:07.494Z,100612.44
2022-11-20T10:30:40.887Z,100601.72
2022-11-20T10:33:18.745Z,100585.63
2022-11-20T10:35:53.051Z,100590.13
2022-11-20T10:38:28.130Z,100580.25
2022-11-20T10:41:20.671Z,100579.25
2022-11-20T10:43:50.451Z,100579.25
2022-11-20T10:46:20.856Z,100562.72
2022-11-20T10:48:50.323Z,100572.06
2022-11-20T10:51:29.120Z,100567.53
2022-11-20T10:54:14.852Z,100558.50
2022-11-20T10:56:49.709Z,100549.75
2022-11-20T10:59:37.510Z,100546.91
2022-11-20T11:02:17.404Z,100544.25
2022-11-20T11:04:47.883Z,100542.56
2022-11-20T11:07:20.161Z,100522.13
2022-11-20T11:09:52.298Z,100542.41
2022-11-20T11:12:21.313Z,100542.41
2022-11-20T11:14:51.944Z,100488.41
2022-11-20T11:17:29.463Z,100523.63
2022-11-20T11:20:06.787Z,100522.94
2022-11-20T11:22:36.641Z,100519.25
2022-11-20T11:25:06.247Z,100519.25
2022-11-20T11:27:34.154Z,100513.88
2022-11-20T11:30:16.229Z,100511.19
2022-11-20T11:32:44.480Z,100507.69
2022-11-20T11:35:24.391Z,100513.88
2022-11-20T11:37:55.147Z,100506.84
2022-11-20T11:40:28.115Z,100506.53
2022-11-20T11:43:00.587Z,100492.44
2022-11-20T11:45:28.129Z,100500.31
2022-11-20T11:47:59.818Z,100488.47
2022-11-20T11:50:28.951Z,100491.16
2022-11-20T11:53:04.472Z,100446.91
2022-11-20T11:55:39.963Z,100473.66
2022-11-20T11:58:16.529Z,100477.34
2022-11-20T12:00:56.941Z,100470.16
2022-11-20T12:03:32.025Z,100469.00
2022-11-20T12:06:03.376Z,100466.31
2022-11-20T12:08:40.971Z,100465.31
2022-11-20T12:11:19.387Z,100457.25
2022-11-20T12:13:54.769Z,100446.53
2022-11-20T12:16:23.239Z,100450.06
2022-11-20T12:18:52.858Z,100442.19
2022-11-20T12:21:26.925Z,100441.88
2022-11-20T12:24:22.736Z,100443.56
2022-11-20T12:27:05.436Z,100439.91
2022-11-20T12:29:45.332Z,100433.84
2022-11-20T12:32:45.517Z,100426.66
2022-11-20T12:35:30.943Z,100422.09
2022-11-20T12:38:16.792Z,100429.19
2022-11-20T12:40:52.055Z,100418.44
2022-11-20T12:43:41.065Z,100418.44
2022-11-20T12:46:25.497Z,100416.72
2022-11-20T12:49:14.072Z,100411.38
2022-11-20T12:51:59.066Z,100422.97
2022-11-20T12:54:57.206Z,100411.38
2022-11-20T12:57:37.976Z,100411.38
2022-11-20T13:00:16.680Z,100407.72
2022-11-20T13:03:08.901Z,100398.81
2022-11-20T13:05:44.224Z,100398.25
2022-11-20T13:08:21.969Z,100391.63
2022-11-20T13:10:54.284Z,100399.53
2022-11-20T13:13:30.340Z,100397.53
2022-11-20T13:16:05.283Z,100389.63
2022-11-20T13:18:39.448Z,100394.00
2022-11-20T13:21:16.594Z,100374.13
2022-11-20T13:23:44.536Z,100385.97
2022-11-20T13:26:22.017Z,100386.78
2022-11-20T13:29:02.042Z,100398.38
2022-11-20T13:31:34.872Z,100387.63
2022-11-20T13:34:05.344Z,100381.41
2022-11-20T13:36:33.667Z,100385.97
2022-11-20T13:39:01.766Z,100385.97
2022-11-20T13:41:32.477Z,100380.59
2022-11-20T13:44:09.144Z,100350.19
2022-11-20T13:46:40.552Z,100373.81
2022-11-20T13:49:11.469Z,100372.69
2022-11-20T13:51:46.006Z,100355.50
2022-11-20T13:54:34.030Z,100368.16
2022-11-20T13:57:16.410Z,100366.47
2022-11-20T13:59:58.705Z,100371.84
2022-11-20T14:02:31.882Z,100371.84
2022-11-20T14:05:02.032Z,100366.47
2022-11-20T14:07:41.702Z,100323.13
2022-11-20T14:10:24.861Z,100357.44
2022-11-20T14:12:56.837Z,100361.13
2022-11-20T14:15:30.986Z,100360.09
2022-11-20T14:18:00.945Z,100357.44
2022-11-20T14:20:32.401Z,100345.88
2022-11-20T14:23:00.323Z,100341.34
2022-11-20T14:25:29.011Z,100338.81
2022-11-20T14:27:59.264Z,100331.63
2022-11-20T14:30:30.030Z,100333.28
2022-11-20T14:33:03.960Z,100321.59
2022-11-20T14:35:37.384Z,100323.25
2022-11-20T14:38:05.803Z,100321.59
2022-11-20T14:40:36.602Z,100283.31
2022-11-20T14:43:18.854Z,100319.88
2022-11-20T14:45:53.332Z,100306.31
2022-11-20T14:48:26.407Z,100302.81
2022-11-20T14:50:54.627Z,100295.06
2022-11-20T14:53:26.043Z,100296.75
2022-11-20T14:56:02.245Z,100292.06
2022-11-20T14:58:32.849Z,100291.94
2022-11-20T15:01:03.074Z,100292.75
2022-11-20T15:03:37.448Z,100285.72
2022-11-20T15:06:06.429Z,100289.09
2022-11-20T15:08:34.521Z,100276.97
2022-11-20T15:11:03.774Z,100287.38
2022-11-20T15:13:34.779Z,100289.41
2022-11-20T15:16:04.276Z,100280.34
2022-11-20T15:18:34.771Z,100267.84
2022-11-20T15:21:08.580Z,100282.03
2022-11-20T15:23:36.900Z,100280.19
2022-11-20T15:26:07.458Z,100276.66
2022-11-20T15:28:38.137Z,100271.28
2022-11-20T15:31:06.412Z,100262.44
2022-11-20T15:33:35.200Z,100259.75
2022-11-20T15:36:04.757Z,100260.56
2022-11-20T15:38:32.727Z,100265.94
2022-11-20T15:41:00.658Z,100247.16
2022-11-20T15:43:28.695Z,100240.25
2022-11-20T15:45:58.864Z,100248.16
2022-11-20T15:48:31.299Z,100239.25
2022-11-20T15:51:01.764Z,100230.69
2022-11-20T15:53:31.412Z,100221.34
2022-11-20T15:55:59.501Z,100209.53
2022-11-20T15:58:27.984Z,100217.94
2022-11-20T16:00:56.198Z,100211.75
2022-11-20T16:03:24.731Z,100214.59
2022-11-20T16:05:52.803Z,100216.28
2022-11-20T16:08:20.737Z,100214.75
2022-11-20T16:10:50.077Z,100209.22
2022-11-20T16:13:37.014Z,100197.41
2022-11-20T16:16:10.153Z,100211.22
2022-11-20T16:18:38.067Z,100211.22
2022-11-20T16:21:06.817Z,100205.84
2022-11-20T16:23:35.225Z,100197.09
2022-11-20T16:26:13.313Z,100193.44
2022-11-20T16:28:41.880Z,100201.50
2022-11-20T16:31:11.335Z,100204.19
2022-11-20T16:33:39.265Z,100193.44
2022-11-20T16:36:11.591Z,100189.75
2022-11-20T16:38:39.888Z,100186.06
2022-11-20T16:41:14.446Z,100195.97
2022-11-20T16:43:51.411Z,100179.88
2022-11-20T16:46:21.777Z,100185.25
2022-11-20T16:48:55.701Z,100177.34
2022-11-20T16:51:25.163Z,100173.66
2022-11-20T16:53:56.001Z,100173.66
2022-11-20T16:56:26.383Z,100150.44
2022-11-20T16:58:57.992Z,100157.56
2022-11-20T17:01:28.640Z,100151.34
2022-11-20T17:03:58.807Z,100109.09
2022-11-20T17:06:28.576Z,100141.47
2022-11-20T17:08:57.380Z,100146.84
2022-11-20T17:11:26.089Z,100143.16
2022-11-20T17:13:53.978Z,100138.66
2022-11-20T17:16:25.004Z,100134.13
2022-11-20T17:18:58.334Z,100130.75
2022-11-20T17:21:30.833Z,100130.75
2022-11-20T17:24:02.233Z,100134.13
2022-11-20T17:26:30.332Z,100119.03
2022-11-20T17:29:00.284Z,100120.03
2022-11-20T17:31:30.749Z,100116.34
2022-11-20T17:34:00.477Z,100110.16
2022-11-20T17:36:29.543Z,100090.44
2022-11-20T17:38:57.537Z,100100.25
2022-11-20T17:41:26.895Z,100103.94
2022-11-20T17:43:55.991Z,100108.28
2022-11-20T17:46:26.183Z,100103.94
2022-11-20T17:48:57.076Z,100103.94
2022-11-20T17:51:27.699Z,100103.94
2022-11-20T17:53:58.151Z,100103.94
2022-11-20T17:56:43.925Z,100108.44
2022-11-20T17:59:13.810Z,100107.63
2022-11-20T18:01:43.235Z,100095.19
2022-11-20T18:04:12.857Z,100091.53
2022-11-20T18:06:40.984Z,100089.81
2022-11-20T18:09:09.125Z,100089.81
2022-11-20T18:11:38.715Z,100083.34
2022-11-20T18:14:25.538Z,100081.47
2022-11-20T18:16:55.966Z,100085.53
2022-11-20T18:19:31.455Z,100068.91
2022-11-20T18:22:01.776Z,100077.50
2022-11-20T18:24:29.956Z,100058.50
2022-11-20T18:26:58.883Z,100066.94
2022-11-20T18:29:28.079Z,100069.44
2022-11-20T18:31:56.128Z,100060.41
2022-11-20T18:34:26.097Z,100055.88
2022-11-20T18:36:54.922Z,100050.53
2022-11-20T18:39:23.721Z,100054.19
2022-11-20T18:42:09.224Z,100050.69
2022-11-20T18:44:52.764Z,100043.59
2022-11-20T18:47:23.179Z,100039.25
2022-11-20T18:49:54.045Z,100048.31
2022-11-20T18:52:23.832Z,100032.22
2022-11-20T18:54:52.299Z,100032.22
2022-11-20T18:57:21.324Z,100027.84
2022-11-20T18:59:49.473Z,100026.00
2022-11-20T19:02:19.024Z,100025.16
2022-11-20T19:04:47.167Z,100020.09
2022-11-20T19:07:16.964Z,100022.47
2022-11-20T19:09:46.337Z,100017.94
2022-11-20T19:12:14.979Z,100015.28
2022-11-20T19:14:43.088Z,100003.69
2022-11-20T19:17:12.875Z,100001.88
2022-11-20T19:19:40.877Z,100000.84
2022-11-20T19:22:09.447Z,100001.69
2022-11-20T19:24:38.896Z,99996.50
2022-11-20T19:27:06.867Z,99998.31
2022-11-20T19:29:35.240Z,99990.28
2022-11-20T19:32:04.484Z,99987.59
2022-11-20T19:34:32.874Z,99980.56
2022-11-20T19:37:01.164Z,99986.78
2022-11-20T19:39:29.179Z,99981.72
2022-11-20T19:41:58.503Z,99984.25
2022-11-20T19:44:26.481Z,99968.47
2022-11-20T19:46:57.154Z,99964.78
2022-11-20T19:49:26.657Z,99963.78
2022-11-20T19:51:54.756Z,99964.47
2022-11-20T19:54:22.673Z,99962.81
2022-11-20T19:56:50.692Z,99959.44
2022-11-20T19:59:19.983Z,99957.44
2022-11-20T20:01:47.995Z,99952.06
2022-11-20T20:04:17.293Z,99945.84
2022-11-20T20:06:45.262Z,99945.84
2022-11-20T20:09:13.983Z,99942.16
2022-11-20T20:11:45.788Z,99940.50
2022-11-20T20:14:16.778Z,99937.66
2022-11-20T20:16:46.347Z,99930.63
2022-11-20T20:19:15.931Z,99935.97
2022-11-20T20:21:44.307Z,99926.06
2022-11-20T20:24:13.120Z,99916.53
2022-11-20T20:26:41.828Z,99914.53
2022-11-20T20:29:09.913Z,99917.22
2022-11-20T20:31:38.063Z,99916.19
2022-11-20T20:34:09.811Z,99902.78
2022-11-20T20:36:37.733Z,99908.31
2022-11-20T20:39:05.737Z,99913.69
2022-11-20T20:41:33.707Z,99901.28
2022-11-20T20:44:19.974Z,99846.00
2022-11-20T20:46:48.173Z,99889.69
2022-11-20T20:49:17.776Z,99882.66
2022-11-20T20:51:45.727Z,99878.97
2022-11-20T20:54:13.625Z,99882.50
2022-11-20T20:56:41.605Z,99871.41
2022-11-20T20:59:09.520Z,99873.63
2022-11-20T21:01:37.541Z,99873.44
2022-11-20T21:04:05.649Z,99868.25
2022-11-20T21:06:37.398Z,99859.19
2022-11-20T21:09:05.360Z,99854.69
2022-11-20T21:11:33.274Z,99859.19
2022-11-20T21:14:01.198Z,99855.84
2022-11-20T21:16:41.011Z,99846.78
2022-11-20T21:19:09.285Z,99843.09
2022-11-20T21:21:58.320Z,99845.13
2022-11-20T21:24:26.702Z,99843.25
2022-11-20T21:26:55.343Z,99831.03
2022-11-20T21:29:24.838Z,99834.41
2022-11-20T21:31:52.931Z,99834.41
2022-11-20T21:34:21.715Z,99834.41
2022-11-20T21:36:51.307Z,99829.03
2022-11-20T21:39:22.476Z,99826.34
2022-11-20T21:41:50.408Z,99823.69
2022-11-20T21:44:33.555Z,99823.69
2022-11-20T21:47:01.589Z,99802.53
2022-11-20T21:49:29.564Z,99805.88
2022-11-20T21:51:58.879Z,99795.16
2022-11-20T21:54:27.171Z,99795.16
2022-11-20T21:56:55.286Z,99791.50
2022-11-20T21:59:23.515Z,99773.06
2022-11-20T22:01:51.601Z,99773.88
2022-11-20T22:04:20.065Z,99774.72
2022-11-20T22:06:48.807Z,99773.69
2022-11-20T22:09:18.160Z,99779.06
2022-11-20T22:11:46.144Z,99768.34
2022-11-20T22:14:22.273Z,99769.19
2022-11-20T22:16:51.665Z,99768.34
2022-11-20T22:19:20.680Z,99767.00
2022-11-20T22:21:49.448Z,99769.19
2022-11-20T22:24:20.119Z,99768.34
2022-11-20T22:26:48.546Z,99764.69
2022-11-20T22:29:18.016Z,99758.47
2022-11-20T22:31:45.980Z,99759.31
2022-11-20T22:34:14.800Z,99706.94
2022-11-20T22:36:43.115Z,99747.22
2022-11-20T22:39:11.308Z,99751.94
2022-11-20T22:41:40.607Z,99756.28
2022-11-20T22:44:09.368Z,99730.78
2022-11-20T22:46:39.325Z,99741.84
2022-11-20T22:49:09.580Z,99726.75
2022-11-20T22:51:39.563Z,99731.13
2022-11-20T22:54:09.472Z,99735.66
2022-11-20T22:56:37.428Z,99731.13
2022-11-20T22:59:06.729Z,99732.81
2022-11-20T23:01:36.745Z,99725.75
2022-11-20T23:04:06.967Z,99717.06
2022-11-20T23:06:35.312Z,99712.53
2022-11-20T23:09:03.402Z,99700.97
2022-11-20T23:11:32.529Z,99702.66
2022-11-20T23:14:02.182Z,99705.34
2022-11-20T23:16:32.409Z,99705.34
2022-11-20T23:19:02.223Z,99693.59
2022-11-20T23:21:30.165Z,99704.31
2022-11-20T23:23:59.209Z,99697.97
2022-11-20T23:26:28.947Z,99700.66
2022-11-20T23:28:58.696Z,99695.28
2022-11-20T23:31:27.979Z,99696.09
2022-11-20T23:33:57.423Z,99692.59
2022-11-20T23:36:25.525Z,99688.22
2022-11-20T23:38:53.458Z,99685.53
2022-11-20T23:41:21.340Z,99685.53
2022-11-20T23:43:49.271Z,99684.56
2022-11-20T23:46:17.271Z,99680.00
2022-11-20T23:48:46.127Z,99679.19
2022-11-20T23:51:15.849Z,99673.84
2022-11-20T23:53:43.894Z,99675.84
2022-11-20T23:56:14.555Z,99658.41
2022-11-20T23:58:43.286Z,99666.78
